createdAt,value
2023-01-28T00:03:41.102Z,0.50
2023-01-28T00:08:42.115Z,0.41
2023-01-28T00:13:44.670Z,0.45
2023-01-28T00:18:46.468Z,0.47
2023-01-28T00:23:51.610Z,0.38
2023-01-28T00:28:53.697Z,0.36
2023-01-28T00:33:55.783Z,0.28
2023-01-28T00:38:58.875Z,0.27
2023-01-28T00:44:00.962Z,0.30
2023-01-28T00:49:03.363Z,0.24
2023-01-28T00:54:04.059Z,0.30
2023-01-28T00:59:06.333Z,0.27
2023-01-28T01:04:07.080Z,0.24
2023-01-28T01:09:11.932Z,0.20
2023-01-28T01:14:15.831Z,0.19
2023-01-28T01:19:16.515Z,0.25
2023-01-28T01:24:17.816Z,0.09
2023-01-28T01:29:19.871Z,0.14
2023-01-28T01:34:20.585Z,0.15
2023-01-28T01:39:23.013Z,0.07
2023-01-28T01:44:58.706Z,0.12
2023-01-28T01:50:01.382Z,0.19
2023-01-28T01:55:06.288Z,0.29
2023-01-28T02:00:10.661Z,0.23
2023-01-28T02:05:23.057Z,0.17
2023-01-28T02:10:25.408Z,0.21
2023-01-28T02:15:29.806Z,0.14
2023-01-28T02:20:45.690Z,0.16
2023-01-28T02:26:11.695Z,0.19
2023-01-28T02:31:19.954Z,0.25
2023-01-28T02:36:29.507Z,0.23
2023-01-28T02:41:35.571Z,0.15
2023-01-28T02:46:56.635Z,0.24
2023-01-28T02:52:10.031Z,0.33
2023-01-28T02:57:25.367Z,0.29
2023-01-28T03:02:36.654Z,0.28
2023-01-28T03:07:39.709Z,0.35
2023-01-28T03:13:01.584Z,0.27
2023-01-28T03:18:25.766Z,0.24
2023-01-28T03:23:51.270Z,0.18
2023-01-28T03:29:13.221Z,0.17
2023-01-28T03:34:32.994Z,0.20
2023-01-28T03:39:33.773Z,0.24
2023-01-28T03:44:50.603Z,0.05
2023-01-28T03:49:55.279Z,0.03
2023-01-28T03:54:57.353Z,-0.02
2023-01-28T03:59:59.338Z,-0.02
2023-01-28T04:05:07.096Z,-0.14
2023-01-28T04:10:11.070Z,-0.08
2023-01-28T04:15:35.903Z,0.01
2023-01-28T04:20:38.455Z,-0.33
2023-01-28T04:25:39.301Z,-0.26
2023-01-28T04:30:42.833Z,-0.36
2023-01-28T04:35:58.833Z,-0.58
2023-01-28T04:41:18.501Z,-0.61
2023-01-28T04:46:19.320Z,-0.82
2023-01-28T04:51:36.905Z,-1.16
2023-01-28T04:56:51.780Z,-1.07
2023-01-28T05:01:53.147Z,-1.09
2023-01-28T05:06:56.643Z,-1.17
2023-01-28T05:12:01.619Z,-1.23
2023-01-28T05:17:04.773Z,-1.23
2023-01-28T05:22:07.731Z,-1.10
2023-01-28T05:27:17.358Z,-1.17
2023-01-28T05:32:18.274Z,-1.05
2023-01-28T05:37:20.805Z,-1.11
2023-01-28T05:42:23.976Z,-0.98
2023-01-28T05:47:30.258Z,-1.23
2023-01-28T05:52:39.971Z,-1.32
2023-01-28T05:57:46.464Z,-1.44
2023-01-28T06:02:49.320Z,-1.57
2023-01-28T06:07:52.430Z,-1.79
2023-01-28T06:12:54.073Z,-1.76
2023-01-28T06:18:13.930Z,-1.77
2023-01-28T06:23:16.274Z,-1.76
2023-01-28T06:28:17.093Z,-1.85
2023-01-28T06:33:17.793Z,-1.78
2023-01-28T06:38:19.857Z,-1.75
2023-01-28T06:43:20.551Z,-1.76
2023-01-28T06:48:21.453Z,-1.82
2023-01-28T06:53:23.765Z,-1.85
2023-01-28T06:58:24.458Z,-1.88
2023-01-28T07:03:26.295Z,-1.87
2023-01-28T07:08:28.356Z,-1.78
2023-01-28T07:13:29.015Z,-1.86
2023-01-28T07:18:29.722Z,-1.90
2023-01-28T07:23:31.782Z,-1.71
2023-01-28T07:28:32.765Z,-1.71
2023-01-28T07:33:33.445Z,-1.70
2023-01-28T07:38:35.433Z,-1.80
2023-01-28T07:43:36.079Z,-1.59
2023-01-28T07:48:36.870Z,-1.68
2023-01-28T07:53:39.003Z,-1.50
2023-01-28T07:58:39.701Z,-1.24
2023-01-28T08:03:40.354Z,-0.78
2023-01-28T08:08:42.914Z,-1.34
2023-01-28T08:13:43.632Z,-1.25
2023-01-28T08:18:44.397Z,-1.02
2023-01-28T08:23:46.483Z,-1.25
2023-01-28T08:28:47.229Z,-1.04
2023-01-28T08:33:47.906Z,-0.97
2023-01-28T08:38:54.125Z,-1.02
2023-01-28T08:43:54.796Z,-1.05
2023-01-28T08:48:55.480Z,-0.99
2023-01-28T08:53:57.561Z,-0.95
2023-01-28T08:58:58.259Z,-0.94
2023-01-28T09:04:00.102Z,-1.01
2023-01-28T09:09:02.580Z,-0.82
2023-01-28T09:14:03.285Z,-0.95
2023-01-28T09:19:03.995Z,-0.94
2023-01-28T09:24:06.495Z,-0.73
2023-01-28T09:29:07.292Z,-0.67
2023-01-28T09:34:07.998Z,-0.59
2023-01-28T09:39:10.555Z,-0.58
2023-01-28T09:44:33.491Z,-0.53
2023-01-28T09:49:38.059Z,-0.56
2023-01-28T09:54:45.878Z,-0.81
2023-01-28T09:59:46.538Z,-0.90
2023-01-28T10:04:59.822Z,-0.93
2023-01-28T10:10:05.883Z,-0.92
2023-01-28T10:15:27.408Z,-0.77
2023-01-28T10:20:33.123Z,-1.05
2023-01-28T10:25:36.038Z,-1.18
2023-01-28T10:30:41.749Z,-1.12
2023-01-28T10:35:43.652Z,-1.04
2023-01-28T10:40:48.035Z,-1.08
2023-01-28T10:45:58.751Z,-0.55
2023-01-28T10:51:01.998Z,-0.25
2023-01-28T10:56:06.804Z,-0.87
2023-01-28T11:01:08.779Z,-0.73
2023-01-28T11:06:25.738Z,-0.92
2023-01-28T11:11:29.789Z,-1.18
2023-01-28T11:16:30.792Z,-1.20
2023-01-28T11:21:33.023Z,-1.12
2023-01-28T11:26:39.153Z,-1.09
2023-01-28T11:31:44.325Z,-0.98
2023-01-28T11:36:52.146Z,-1.03
2023-01-28T11:41:54.806Z,-0.81
2023-01-28T11:47:17.236Z,-0.74
2023-01-28T11:52:26.955Z,-0.68
2023-01-28T11:57:39.905Z,-0.88
2023-01-28T12:02:52.113Z,-0.75
2023-01-28T12:07:58.943Z,-0.84
2023-01-28T12:13:18.587Z,-0.74
2023-01-28T12:18:42.293Z,-0.90
2023-01-28T12:24:01.148Z,-0.78
2023-01-28T12:29:15.804Z,-0.59
2023-01-28T12:34:38.025Z,-0.64
2023-01-28T12:39:53.431Z,-0.90
2023-01-28T12:45:00.612Z,-0.65
2023-01-28T12:50:07.151Z,-0.70
2023-01-28T12:55:16.449Z,-0.61
2023-01-28T13:00:27.431Z,-0.51
2023-01-28T13:05:35.060Z,-0.61
2023-01-28T13:10:39.588Z,-0.73
2023-01-28T13:15:44.527Z,-0.82
2023-01-28T13:20:49.736Z,-0.73
2023-01-28T13:25:52.413Z,-0.76
2023-01-28T13:31:03.541Z,-0.73
2023-01-28T13:36:26.564Z,-0.37
2023-01-28T13:41:38.511Z,-0.65
2023-01-28T13:46:40.604Z,-0.89
2023-01-28T13:51:56.110Z,-0.89
2023-01-28T13:57:17.310Z,-0.78
2023-01-28T14:02:46.645Z,-0.61
2023-01-28T14:08:10.719Z,-0.71
2023-01-28T14:13:50.412Z,-0.80
2023-01-28T14:18:53.307Z,-0.95
2023-01-28T14:23:58.130Z,-0.96
2023-01-28T14:29:10.120Z,-0.67
2023-01-28T14:34:21.183Z,-0.88
2023-01-28T14:39:27.268Z,-0.89
2023-01-28T14:44:32.752Z,-0.75
2023-01-28T14:49:49.031Z,-0.79
2023-01-28T14:55:01.602Z,-0.86
2023-01-28T15:00:02.296Z,-0.95
2023-01-28T15:05:14.454Z,-0.96
2023-01-28T15:10:18.255Z,-1.02
2023-01-28T15:15:26.689Z,-0.97
2023-01-28T15:20:28.830Z,-0.83
2023-01-28T15:25:30.974Z,-0.76
2023-01-28T15:30:33.428Z,-0.72
2023-01-28T15:35:37.433Z,-0.78
2023-01-28T15:40:43.356Z,-0.72
2023-01-28T15:45:47.990Z,-0.73
2023-01-28T15:50:59.804Z,-0.88
2023-01-28T15:56:09.076Z,-0.72
2023-01-28T16:01:19.591Z,-0.69
2023-01-28T16:06:23.482Z,-0.69
2023-01-28T16:11:29.259Z,-0.79
2023-01-28T16:16:33.112Z,-0.70
2023-01-28T16:21:38.521Z,-0.65
2023-01-28T16:26:39.299Z,-0.64
2023-01-28T16:31:40.166Z,-0.70
2023-01-28T16:36:42.538Z,-0.22
2023-01-28T16:41:45.473Z,-0.35
2023-01-28T16:46:46.922Z,-0.46
2023-01-28T16:51:48.985Z,-0.64
2023-01-28T16:56:50.297Z,-0.77
2023-01-28T17:01:51.163Z,-0.67
2023-01-28T17:06:54.054Z,-0.68
2023-01-28T17:11:54.783Z,-0.78
2023-01-28T17:16:55.533Z,-0.74
2023-01-28T17:21:59.177Z,-0.62
2023-01-28T17:26:59.882Z,-0.68
2023-01-28T17:32:00.617Z,-0.71
2023-01-28T17:37:02.711Z,-0.82
2023-01-28T17:42:03.495Z,-0.75
2023-01-28T17:47:04.240Z,-0.82
2023-01-28T17:52:06.415Z,-0.80
2023-01-28T17:57:07.127Z,-0.63
2023-01-28T18:02:10.973Z,-0.70
2023-01-28T18:07:13.065Z,-0.75
2023-01-28T18:12:16.494Z,-0.73
2023-01-28T18:17:17.307Z,-0.70
2023-01-28T18:22:19.543Z,-0.67
2023-01-28T18:27:20.977Z,-0.74
2023-01-28T18:32:21.631Z,-0.85
2023-01-28T18:37:23.717Z,-0.93
2023-01-28T18:42:24.406Z,-0.87
2023-01-28T18:47:25.100Z,-0.73
2023-01-28T18:52:27.145Z,-0.82
2023-01-28T18:57:27.926Z,-0.77
2023-01-28T19:02:28.802Z,-0.86
2023-01-28T19:07:32.736Z,-0.74
2023-01-28T19:12:33.428Z,-0.81
2023-01-28T19:17:35.539Z,-0.80
2023-01-28T19:22:37.717Z,-0.79
2023-01-28T19:27:38.474Z,-0.80
2023-01-28T19:32:39.214Z,-0.81
2023-01-28T19:37:41.229Z,-0.86
2023-01-28T19:42:41.936Z,-0.94
2023-01-28T19:47:42.610Z,-1.03
2023-01-28T19:52:44.658Z,-1.09
2023-01-28T19:57:45.534Z,-1.09
2023-01-28T20:02:46.259Z,-1.11
2023-01-28T20:07:48.376Z,-1.07
2023-01-28T20:12:49.096Z,-1.05
2023-01-28T20:17:49.834Z,-1.15
2023-01-28T20:22:51.857Z,-1.17
2023-01-28T20:27:52.547Z,-1.13
2023-01-28T20:32:53.337Z,-1.20
2023-01-28T20:37:55.376Z,-1.07
2023-01-28T20:42:56.054Z,-1.21
2023-01-28T20:47:56.768Z,-1.18
2023-01-28T20:52:58.932Z,-1.01
2023-01-28T20:57:59.727Z,-0.88
2023-01-28T21:03:00.574Z,-1.04
2023-01-28T21:08:02.606Z,-0.80
2023-01-28T21:13:03.319Z,-0.74
2023-01-28T21:18:04.845Z,-0.81
2023-01-28T21:23:06.975Z,-0.89
2023-01-28T21:28:07.764Z,-0.84
2023-01-28T21:33:08.942Z,-0.79
2023-01-28T21:38:12.349Z,-0.78
2023-01-28T21:43:13.518Z,-1.01
2023-01-28T21:48:14.347Z,-0.82
2023-01-28T21:53:16.399Z,-0.69
2023-01-28T21:58:34.610Z,-0.67
2023-01-28T22:03:35.296Z,-0.73
2023-01-28T22:08:37.402Z,-0.67
2023-01-28T22:13:38.441Z,-0.77
2023-01-28T22:18:39.128Z,-0.67
2023-01-28T22:23:41.168Z,-0.65
2023-01-28T22:28:41.822Z,-0.59
2023-01-28T22:33:43.482Z,-0.67
2023-01-28T22:38:46.827Z,-0.77
2023-01-28T22:43:48.065Z,-0.70
2023-01-28T22:48:49.718Z,-0.68
2023-01-28T22:53:52.745Z,-0.84
2023-01-28T22:58:55.666Z,-0.70
2023-01-28T23:03:56.839Z,-0.82
2023-01-28T23:08:58.911Z,-0.80
2023-01-28T23:14:19.429Z,-0.77
2023-01-28T23:19:37.826Z,-0.77
2023-01-28T23:24:39.842Z,-0.87
2023-01-28T23:29:40.493Z,-0.82
2023-01-28T23:34:44.429Z,-0.80
2023-01-28T23:39:46.451Z,-0.76
2023-01-28T23:44:47.578Z,-0.84
2023-01-28T23:49:48.239Z,-0.73
2023-01-28T23:54:50.326Z,-0.90
2023-01-28T23:59:51.886Z,-1.00
